createdAt,value
2018-05-10T00:02:12.022Z,6.50
2018-05-10T00:04:39.914Z,5.60
2018-05-10T00:07:07.821Z,6.37
2018-05-10T00:09:35.722Z,5.93
2018-05-10T00:12:03.630Z,6.10
2018-05-10T00:14:31.530Z,5.17
2018-05-10T00:16:59.446Z,5.10
2018-05-10T00:19:27.353Z,4.77
2018-05-10T00:21:55.238Z,6.30
2018-05-10T00:24:23.217Z,6.20
2018-05-10T00:26:51.106Z,5.63
2018-05-10T00:29:19.006Z,5.60
2018-05-10T00:31:46.901Z,5.27
2018-05-10T00:34:14.799Z,5.17
2018-05-10T00:36:42.697Z,5.03
2018-05-10T00:39:10.619Z,5.63
2018-05-10T00:41:38.708Z,6.07
2018-05-10T00:44:06.612Z,5.23
2018-05-10T00:46:34.506Z,5.77
2018-05-10T00:49:02.426Z,5.67
2018-05-10T00:51:30.318Z,5.40
2018-05-10T00:53:58.209Z,5.23
2018-05-10T00:56:26.133Z,5.23
2018-05-10T00:58:54.031Z,5.30
2018-05-10T01:01:21.933Z,5.77
2018-05-10T01:03:49.857Z,5.67
2018-05-10T01:06:17.770Z,5.37
2018-05-10T01:08:45.651Z,6.13
2018-05-10T01:11:13.549Z,5.10
2018-05-10T01:13:41.458Z,5.97
2018-05-10T01:16:09.358Z,5.33
2018-05-10T01:18:37.262Z,5.97
2018-05-10T01:21:05.154Z,5.33
2018-05-10T01:23:33.078Z,5.70
2018-05-10T01:26:00.985Z,5.10
2018-05-10T01:28:28.881Z,4.90
2018-05-10T01:30:56.793Z,4.93
2018-05-10T01:33:24.681Z,6.90
2018-05-10T01:35:58.760Z,5.70
2018-05-10T01:38:26.690Z,4.87
2018-05-10T01:40:54.632Z,6.20
2018-05-10T01:43:22.689Z,5.50
2018-05-10T01:45:50.606Z,5.60
2018-05-10T01:48:18.521Z,5.27
2018-05-10T01:50:46.415Z,5.20
2018-05-10T01:53:14.350Z,5.00
2018-05-10T01:55:42.242Z,5.10
2018-05-10T01:58:10.170Z,5.37
2018-05-10T02:00:38.058Z,4.90
2018-05-10T02:03:05.973Z,5.47
2018-05-10T02:05:33.878Z,5.17
2018-05-10T02:08:01.785Z,5.80
2018-05-10T02:10:29.702Z,5.07
2018-05-10T02:12:57.614Z,4.10
2018-05-10T02:15:25.525Z,5.07
2018-05-10T02:17:53.486Z,4.70
2018-05-10T02:20:21.414Z,4.73
2018-05-10T02:22:49.308Z,5.07
2018-05-10T02:25:17.218Z,5.00
2018-05-10T02:27:45.114Z,4.80
2018-05-10T02:30:13.068Z,4.77
2018-05-10T02:32:40.981Z,4.67
2018-05-10T02:35:08.898Z,4.80
2018-05-10T02:37:36.811Z,5.30
2018-05-10T02:40:04.710Z,4.90
2018-05-10T02:42:32.610Z,5.20
2018-05-10T02:45:00.747Z,4.70
2018-05-10T02:47:28.594Z,5.10
2018-05-10T02:49:56.490Z,5.17
2018-05-10T02:52:24.384Z,5.10
2018-05-10T02:54:52.286Z,5.67
2018-05-10T02:57:20.178Z,4.53
2018-05-10T02:59:48.104Z,4.87
2018-05-10T03:02:16.034Z,5.30
2018-05-10T03:04:43.931Z,5.73
2018-05-10T03:07:11.847Z,5.70
2018-05-10T03:09:39.762Z,5.27
2018-05-10T03:12:07.666Z,5.43
2018-05-10T03:14:35.551Z,5.60
2018-05-10T03:17:03.459Z,6.40
2018-05-10T03:19:31.358Z,5.80
2018-05-10T03:21:59.286Z,5.00
2018-05-10T03:24:27.182Z,5.40
2018-05-10T03:26:55.130Z,5.47
2018-05-10T03:29:23.037Z,5.70
2018-05-10T03:31:50.940Z,5.87
2018-05-10T03:34:18.832Z,4.93
2018-05-10T03:36:46.735Z,5.97
2018-05-10T03:39:14.650Z,4.93
2018-05-10T03:41:42.558Z,4.80
2018-05-10T03:44:10.522Z,4.50
2018-05-10T03:46:38.633Z,5.87
2018-05-10T03:49:06.517Z,5.97
2018-05-10T03:51:34.473Z,7.40
2018-05-10T03:54:02.434Z,8.50
2018-05-10T03:56:30.369Z,6.57
2018-05-10T03:58:58.277Z,5.43
2018-05-10T04:01:26.205Z,5.53
2018-05-10T04:04:00.209Z,6.00
2018-05-10T04:06:34.309Z,4.67
2018-05-10T04:09:09.049Z,5.90
2018-05-10T04:11:36.970Z,5.27
2018-05-10T04:14:04.861Z,5.80
2018-05-10T04:16:32.761Z,5.87
2018-05-10T04:19:00.654Z,5.13
2018-05-10T04:21:28.541Z,6.00
2018-05-10T04:23:56.449Z,5.87
2018-05-10T04:26:24.338Z,5.53
2018-05-10T04:28:52.229Z,5.17
2018-05-10T04:31:20.170Z,4.80
2018-05-10T04:33:48.061Z,5.77
2018-05-10T04:36:16.336Z,6.00
2018-05-10T04:38:45.164Z,5.30
2018-05-10T04:41:13.090Z,5.50
2018-05-10T04:43:41.012Z,6.30
2018-05-10T04:46:08.946Z,6.73
2018-05-10T04:48:37.130Z,6.03
2018-05-10T04:51:05.038Z,6.20
2018-05-10T04:53:32.997Z,5.50
2018-05-10T04:56:00.946Z,5.20
2018-05-10T04:58:28.873Z,5.50
2018-05-10T05:00:56.782Z,5.50
2018-05-10T05:03:24.723Z,5.10
2018-05-10T05:05:52.597Z,5.90
2018-05-10T05:08:20.493Z,5.70
2018-05-10T05:10:48.454Z,6.20
2018-05-10T05:13:16.354Z,6.30
2018-05-10T05:15:44.298Z,5.67
2018-05-10T05:18:12.202Z,6.53
2018-05-10T05:20:40.097Z,5.63
2018-05-10T05:23:07.993Z,5.60
2018-05-10T05:25:35.880Z,6.60
2018-05-10T05:28:03.774Z,6.70
2018-05-10T05:30:31.696Z,6.43
2018-05-10T05:32:59.581Z,6.53
2018-05-10T05:35:27.497Z,6.10
2018-05-10T05:37:55.383Z,6.43
2018-05-10T05:40:23.302Z,6.27
2018-05-10T05:42:51.229Z,6.40
2018-05-10T05:45:19.149Z,6.50
2018-05-10T05:47:47.049Z,5.97
2018-05-10T05:50:15.134Z,6.67
2018-05-10T05:52:43.026Z,6.17
2018-05-10T05:55:10.923Z,7.10
2018-05-10T05:57:38.874Z,7.20
2018-05-10T06:00:06.770Z,6.87
2018-05-10T06:02:34.726Z,7.87
2018-05-10T06:05:02.625Z,7.20
2018-05-10T06:07:30.533Z,7.23
2018-05-10T06:09:58.425Z,7.00
2018-05-10T06:12:26.325Z,7.20
2018-05-10T06:14:54.234Z,7.13
2018-05-10T06:17:22.121Z,7.17
2018-05-10T06:19:50.030Z,6.83
2018-05-10T06:22:17.913Z,7.80
2018-05-10T06:24:45.926Z,6.63
2018-05-10T06:27:13.726Z,7.03
2018-05-10T06:29:41.636Z,7.47
2018-05-10T06:32:09.538Z,8.07
2018-05-10T06:34:37.425Z,7.40
2018-05-10T06:37:05.322Z,7.10
2018-05-10T06:39:33.219Z,7.30
2018-05-10T06:42:01.113Z,7.23
2018-05-10T06:44:29.054Z,7.70
2018-05-10T06:46:57.099Z,7.10
2018-05-10T06:49:24.888Z,7.50
2018-05-10T06:51:53.010Z,7.37
2018-05-10T06:54:20.925Z,7.37
2018-05-10T06:56:48.818Z,9.07
2018-05-10T06:59:16.729Z,8.13
2018-05-10T07:01:44.638Z,8.70
2018-05-10T07:04:12.547Z,7.60
2018-05-10T07:06:40.438Z,8.80
2018-05-10T07:09:08.340Z,7.53
2018-05-10T07:11:36.265Z,8.53
2018-05-10T07:14:04.242Z,9.33
2018-05-10T07:16:32.107Z,8.93
2018-05-10T07:19:00.073Z,7.80
2018-05-10T07:21:27.966Z,8.50
2018-05-10T07:23:55.866Z,9.90
2018-05-10T07:26:23.758Z,8.10
2018-05-10T07:28:51.689Z,7.77
2018-05-10T07:31:19.586Z,8.77
2018-05-10T07:33:47.510Z,9.30
2018-05-10T07:36:15.414Z,10.37
2018-05-10T07:38:43.301Z,10.33
2018-05-10T07:41:11.202Z,9.10
2018-05-10T07:43:39.097Z,9.33
2018-05-10T07:46:07.002Z,8.67
2018-05-10T07:48:34.931Z,8.90
2018-05-10T07:51:02.819Z,8.60
2018-05-10T07:53:30.981Z,9.90
2018-05-10T07:55:58.897Z,10.20
2018-05-10T07:58:26.833Z,8.77
2018-05-10T08:00:54.812Z,9.50
2018-05-10T08:03:22.625Z,8.17
2018-05-10T08:05:50.518Z,8.70
2018-05-10T08:08:18.417Z,8.30
2018-05-10T08:10:46.318Z,8.40
2018-05-10T08:13:14.249Z,8.60
2018-05-10T08:15:42.155Z,8.47
2018-05-10T08:18:10.057Z,9.23
2018-05-10T08:20:37.941Z,8.80
2018-05-10T08:23:05.850Z,8.30
2018-05-10T08:25:33.781Z,9.10
2018-05-10T08:28:01.719Z,9.33
2018-05-10T08:30:29.645Z,8.27
2018-05-10T08:32:57.554Z,7.73
2018-05-10T08:35:25.455Z,7.50
2018-05-10T08:37:53.345Z,7.33
2018-05-10T08:40:21.241Z,7.77
2018-05-10T08:42:49.133Z,7.67
2018-05-10T08:45:17.030Z,7.40
2018-05-10T08:47:44.939Z,7.77
2018-05-10T08:50:12.850Z,7.33
2018-05-10T08:52:40.746Z,7.50
2018-05-10T08:55:08.922Z,7.80
2018-05-10T08:57:36.838Z,7.43
2018-05-10T09:00:04.804Z,7.03
2018-05-10T09:02:32.646Z,7.50
2018-05-10T09:05:00.558Z,7.63
2018-05-10T09:07:28.514Z,7.80
2018-05-10T09:09:56.345Z,7.60
2018-05-10T09:12:24.246Z,7.40
2018-05-10T09:14:52.139Z,7.10
2018-05-10T09:17:20.034Z,6.90
2018-05-10T09:19:47.976Z,6.40
2018-05-10T09:22:15.865Z,6.47
2018-05-10T09:24:43.745Z,6.90
2018-05-10T09:27:11.642Z,6.70
2018-05-10T09:29:39.542Z,6.60
2018-05-10T09:32:07.466Z,7.40
2018-05-10T09:34:35.357Z,6.70
2018-05-10T09:37:03.258Z,6.80
2018-05-10T09:39:31.220Z,6.60
2018-05-10T09:41:59.112Z,7.50
2018-05-10T09:44:27.011Z,6.87
2018-05-10T09:46:54.897Z,7.03
2018-05-10T09:49:22.782Z,6.70
2018-05-10T09:51:50.674Z,7.10
2018-05-10T09:54:18.612Z,6.60
2018-05-10T09:56:46.731Z,6.50
2018-05-10T09:59:14.637Z,6.22
2018-05-10T10:01:42.538Z,7.07
2018-05-10T10:04:10.462Z,7.03
2018-05-10T10:06:40.966Z,6.63
2018-05-10T10:09:08.965Z,6.87
2018-05-10T10:11:36.967Z,7.63
2018-05-10T10:14:04.775Z,7.27
2018-05-10T10:16:32.673Z,7.93
2018-05-10T10:19:00.565Z,7.40
2018-05-10T10:21:28.458Z,6.80
2018-05-10T10:23:56.350Z,7.20
2018-05-10T10:26:24.237Z,6.80
2018-05-10T10:28:52.117Z,7.50
2018-05-10T10:31:20.076Z,7.60
2018-05-10T10:33:47.969Z,8.10
2018-05-10T10:36:15.859Z,6.63
2018-05-10T10:38:43.814Z,8.77
2018-05-10T10:41:11.733Z,8.60
2018-05-10T10:43:39.638Z,8.83
2018-05-10T10:46:07.555Z,8.97
2018-05-10T10:48:35.461Z,7.77
2018-05-10T10:51:03.354Z,9.87
2018-05-10T10:53:31.245Z,10.00
2018-05-10T10:55:59.137Z,8.83
2018-05-10T10:58:27.253Z,8.83
2018-05-10T11:00:55.193Z,8.40
2018-05-10T11:03:23.093Z,8.80
2018-05-10T11:05:50.994Z,8.17
2018-05-10T11:08:18.902Z,8.83
2018-05-10T11:10:46.794Z,7.80
2018-05-10T11:13:14.689Z,8.17
2018-05-10T11:15:42.589Z,8.90
2018-05-10T11:18:10.498Z,8.67
2018-05-10T11:20:38.394Z,7.97
2018-05-10T11:23:06.301Z,9.10
2018-05-10T11:25:34.194Z,8.10
2018-05-10T11:28:02.119Z,9.10
2018-05-10T11:30:30.038Z,8.20
2018-05-10T11:32:58.003Z,7.40
2018-05-10T11:35:25.854Z,7.40
2018-05-10T11:37:53.746Z,7.37
2018-05-10T11:40:21.660Z,7.60
2018-05-10T11:42:49.553Z,8.30
2018-05-10T11:45:17.443Z,8.23
2018-05-10T11:47:45.361Z,7.93
2018-05-10T11:50:13.300Z,8.83
2018-05-10T11:52:41.206Z,8.53
2018-05-10T11:55:09.148Z,9.10
2018-05-10T11:57:37.075Z,9.67
2018-05-10T12:00:05.257Z,9.67
2018-05-10T12:02:33.473Z,9.20
2018-05-10T12:05:01.473Z,9.03
2018-05-10T12:07:29.365Z,9.93
2018-05-10T12:09:57.273Z,9.90
2018-05-10T12:12:25.208Z,9.80
2018-05-10T12:14:53.155Z,10.37
2018-05-10T12:17:21.062Z,10.67
2018-05-10T12:19:48.970Z,12.43
2018-05-10T12:22:16.875Z,9.50
2018-05-10T12:24:44.789Z,8.37
2018-05-10T12:27:12.721Z,8.63
2018-05-10T12:29:40.694Z,8.70
2018-05-10T12:32:08.600Z,9.30
2018-05-10T12:34:36.506Z,7.10
2018-05-10T12:37:04.427Z,8.70
2018-05-10T12:39:32.314Z,8.07
2018-05-10T12:42:00.226Z,10.70
2018-05-10T12:44:28.129Z,10.67
2018-05-10T12:46:56.022Z,10.00
2018-05-10T12:49:23.929Z,13.23
2018-05-10T12:51:51.845Z,14.80
2018-05-10T12:54:19.742Z,18.07
2018-05-10T12:56:47.698Z,24.50
2018-05-10T12:59:15.604Z,42.17
2018-05-10T13:01:43.771Z,43.87
2018-05-10T13:04:11.705Z,55.77
2018-05-10T13:06:39.596Z,52.10
2018-05-10T13:09:07.500Z,64.10
2018-05-10T13:11:35.405Z,61.57
2018-05-10T13:14:03.318Z,60.70
2018-05-10T13:16:31.215Z,59.87
2018-05-10T13:18:59.125Z,54.60
2018-05-10T13:21:27.020Z,56.20
2018-05-10T13:23:54.951Z,53.23
2018-05-10T13:26:22.889Z,50.47
2018-05-10T13:28:50.787Z,49.88
2018-05-10T13:31:18.733Z,52.03
2018-05-10T13:33:46.641Z,49.30
2018-05-10T13:36:14.550Z,51.03
2018-05-10T13:38:42.466Z,52.10
2018-05-10T13:41:10.402Z,52.77
2018-05-10T13:43:38.354Z,53.60
2018-05-10T13:46:06.294Z,55.10
2018-05-10T13:48:34.185Z,57.23
2018-05-10T13:51:02.093Z,56.27
2018-05-10T13:53:30.034Z,54.00
2018-05-10T13:55:57.933Z,53.63
2018-05-10T13:58:27.694Z,55.77
2018-05-10T14:00:55.986Z,52.70
2018-05-10T14:03:24.170Z,51.37
2018-05-10T14:05:52.070Z,56.73
2018-05-10T14:08:19.969Z,57.37
2018-05-10T14:10:47.956Z,57.60
2018-05-10T14:13:15.861Z,57.10
2018-05-10T14:15:43.758Z,54.77
2018-05-10T14:18:11.683Z,53.83
2018-05-10T14:20:39.665Z,51.27
2018-05-10T14:23:07.554Z,50.97
2018-05-10T14:25:35.446Z,50.90
2018-05-10T14:28:03.436Z,46.57
2018-05-10T14:30:31.270Z,45.30
2018-05-10T14:32:59.202Z,43.80
2018-05-10T14:35:27.089Z,41.17
2018-05-10T14:37:55.004Z,39.33
2018-05-10T14:40:22.906Z,40.50
2018-05-10T14:42:50.845Z,37.30
2018-05-10T14:45:18.741Z,40.10
2018-05-10T14:47:46.642Z,36.53
2018-05-10T14:50:14.574Z,36.27
2018-05-10T14:52:42.534Z,37.00
2018-05-10T14:55:10.433Z,38.50
2018-05-10T14:57:38.339Z,35.10
2018-05-10T15:00:06.245Z,35.90
2018-05-10T15:02:34.138Z,35.70
2018-05-10T15:05:02.317Z,32.90
2018-05-10T15:07:30.245Z,30.10
2018-05-10T15:09:58.155Z,30.37
2018-05-10T15:12:26.064Z,30.00
2018-05-10T15:14:53.976Z,29.17
2018-05-10T15:17:21.894Z,30.97
2018-05-10T15:19:49.825Z,30.13
2018-05-10T15:22:17.782Z,30.30
2018-05-10T15:24:45.698Z,28.60
2018-05-10T15:27:13.634Z,25.63
2018-05-10T15:29:41.550Z,26.97
2018-05-10T15:32:09.471Z,26.27
2018-05-10T15:34:38.619Z,26.10
2018-05-10T15:37:07.746Z,29.57
2018-05-10T15:39:35.673Z,26.27
2018-05-10T15:42:03.658Z,25.67
2018-05-10T15:44:31.493Z,24.93
2018-05-10T15:46:59.409Z,24.30
2018-05-10T15:49:27.314Z,20.13
2018-05-10T15:51:55.299Z,20.57
2018-05-10T15:54:23.186Z,18.33
2018-05-10T15:56:51.130Z,17.73
2018-05-10T15:59:19.056Z,14.43
2018-05-10T16:01:46.950Z,15.73
2018-05-10T16:04:14.846Z,14.80
2018-05-10T16:06:43.040Z,13.90
2018-05-10T16:09:10.942Z,12.00
2018-05-10T16:11:38.874Z,10.70
2018-05-10T16:14:06.765Z,10.90
2018-05-10T16:16:34.670Z,11.83
2018-05-10T16:19:02.584Z,9.30
2018-05-10T16:21:30.517Z,9.07
2018-05-10T16:23:58.433Z,7.60
2018-05-10T16:26:26.413Z,7.43
2018-05-10T16:28:54.289Z,7.13
2018-05-10T16:31:22.265Z,7.47
2018-05-10T16:33:50.175Z,7.13
2018-05-10T16:36:18.087Z,6.23
2018-05-10T16:38:45.997Z,5.93
2018-05-10T16:41:13.936Z,7.03
2018-05-10T16:43:41.882Z,6.60
2018-05-10T16:46:09.797Z,7.10
2018-05-10T16:48:37.694Z,7.47
2018-05-10T16:51:05.595Z,6.87
2018-05-10T16:53:33.486Z,7.27
2018-05-10T16:56:01.423Z,7.47
2018-05-10T16:58:29.330Z,6.30
2018-05-10T17:00:57.253Z,6.83
2018-05-10T17:03:25.157Z,6.03
2018-05-10T17:05:53.106Z,8.77
2018-05-10T17:08:21.190Z,5.67
2018-05-10T17:10:49.083Z,5.67
2018-05-10T17:13:17.070Z,6.23
2018-05-10T17:15:45.038Z,6.00
2018-05-10T17:18:12.931Z,5.87
2018-05-10T17:20:40.825Z,7.20
2018-05-10T17:23:08.706Z,5.50
2018-05-10T17:25:36.620Z,5.30
2018-05-10T17:28:04.522Z,6.07
2018-05-10T17:30:32.457Z,6.90
2018-05-10T17:33:00.407Z,6.20
2018-05-10T17:35:28.322Z,6.43
2018-05-10T17:37:56.220Z,5.63
2018-05-10T17:40:24.134Z,7.40
2018-05-10T17:42:52.096Z,5.70
2018-05-10T17:45:20.253Z,6.13
2018-05-10T17:47:48.150Z,6.07
2018-05-10T17:50:16.077Z,6.27
2018-05-10T17:52:44.001Z,6.33
2018-05-10T17:55:12.036Z,6.03
2018-05-10T17:57:39.850Z,5.70
2018-05-10T18:00:07.774Z,6.60
2018-05-10T18:02:35.711Z,7.90
2018-05-10T18:05:03.606Z,7.03
2018-05-10T18:07:31.506Z,7.60
2018-05-10T18:09:59.643Z,7.30
2018-05-10T18:12:27.566Z,7.07
2018-05-10T18:14:55.498Z,7.50
2018-05-10T18:17:23.389Z,7.80
2018-05-10T18:19:51.292Z,7.50
2018-05-10T18:22:19.202Z,7.87
2018-05-10T18:24:47.134Z,7.40
2018-05-10T18:27:15.075Z,7.17
2018-05-10T18:29:43.009Z,6.40
2018-05-10T18:32:10.922Z,6.50
2018-05-10T18:34:38.826Z,7.10
2018-05-10T18:37:06.752Z,6.20
2018-05-10T18:39:34.666Z,6.17
2018-05-10T18:42:02.578Z,8.00
2018-05-10T18:44:30.530Z,5.90
2018-05-10T18:46:58.440Z,7.00
2018-05-10T18:49:26.343Z,6.60
2018-05-10T18:51:54.246Z,6.73
2018-05-10T18:54:22.164Z,8.10
2018-05-10T18:56:50.086Z,7.23
2018-05-10T18:59:18.002Z,6.03
2018-05-10T19:01:46.013Z,7.20
2018-05-10T19:04:13.881Z,6.70
2018-05-10T19:06:41.778Z,7.03
2018-05-10T19:09:09.715Z,6.87
2018-05-10T19:11:37.881Z,6.47
2018-05-10T19:14:05.802Z,7.10
2018-05-10T19:16:33.715Z,6.43
2018-05-10T19:19:01.639Z,7.20
2018-05-10T19:21:29.525Z,7.10
2018-05-10T19:23:57.456Z,7.60
2018-05-10T19:26:25.357Z,7.33
2018-05-10T19:28:53.247Z,6.07
2018-05-10T19:31:21.142Z,6.70
2018-05-10T19:33:49.066Z,6.90
2018-05-10T19:36:16.969Z,7.13
2018-05-10T19:38:44.878Z,5.80
2018-05-10T19:41:12.769Z,6.00
2018-05-10T19:43:40.682Z,6.40
2018-05-10T19:46:08.653Z,6.43
2018-05-10T19:48:36.575Z,5.80
2018-05-10T19:51:04.476Z,5.20
2018-05-10T19:53:34.259Z,5.93
2018-05-10T19:56:02.818Z,5.23
2018-05-10T19:58:30.730Z,7.37
2018-05-10T20:01:00.360Z,5.03
2018-05-10T20:03:30.687Z,5.50
2018-05-10T20:06:01.026Z,5.33
2018-05-10T20:08:31.658Z,4.57
2018-05-10T20:11:02.698Z,4.73
2018-05-10T20:13:33.324Z,5.17
2018-05-10T20:16:03.557Z,5.43
2018-05-10T20:18:34.325Z,5.53
2018-05-10T20:21:02.752Z,5.17
2018-05-10T20:23:30.622Z,5.60
2018-05-10T20:25:58.610Z,6.00
2018-05-10T20:28:26.506Z,5.30
2018-05-10T20:30:54.412Z,4.70
2018-05-10T20:33:22.349Z,4.87
2018-05-10T20:35:50.252Z,5.33
2018-05-10T20:38:18.166Z,5.00
2018-05-10T20:40:46.106Z,4.53
2018-05-10T20:43:14.041Z,4.90
2018-05-10T20:45:42.130Z,4.30
2018-05-10T20:48:10.030Z,3.97
2018-05-10T20:50:37.938Z,5.00
2018-05-10T20:53:05.836Z,4.50
2018-05-10T20:55:33.735Z,5.50
2018-05-10T20:58:01.674Z,5.50
2018-05-10T21:00:29.606Z,5.03
2018-05-10T21:02:57.509Z,4.30
2018-05-10T21:05:25.418Z,4.10
2018-05-10T21:07:53.338Z,3.97
2018-05-10T21:10:21.286Z,3.67
2018-05-10T21:12:49.183Z,4.00
2018-05-10T21:15:17.318Z,4.30
2018-05-10T21:17:45.248Z,3.60
2018-05-10T21:20:13.138Z,5.07
2018-05-10T21:22:41.065Z,3.53
2018-05-10T21:25:08.961Z,4.10
2018-05-10T21:27:36.876Z,4.17
2018-05-10T21:30:04.785Z,3.80
2018-05-10T21:32:32.697Z,4.43
2018-05-10T21:35:00.621Z,3.60
2018-05-10T21:37:28.526Z,4.27
2018-05-10T21:39:56.436Z,4.07
2018-05-10T21:42:24.362Z,4.13
2018-05-10T21:44:52.369Z,3.90
2018-05-10T21:47:20.199Z,4.13
2018-05-10T21:49:54.357Z,4.30
2018-05-10T21:52:22.277Z,4.47
2018-05-10T21:54:50.247Z,4.93
2018-05-10T21:57:18.097Z,3.70
2018-05-10T21:59:46.014Z,4.40
2018-05-10T22:02:13.910Z,3.40
2018-05-10T22:04:41.836Z,4.37
2018-05-10T22:07:09.771Z,3.90
2018-05-10T22:09:37.666Z,4.83
2018-05-10T22:12:05.720Z,4.37
2018-05-10T22:14:33.550Z,4.50
2018-05-10T22:17:01.626Z,3.50
2018-05-10T22:19:29.566Z,4.17
2018-05-10T22:21:57.548Z,5.70
2018-05-10T22:24:25.421Z,3.70
2018-05-10T22:26:53.314Z,4.93
2018-05-10T22:29:21.261Z,4.57
2018-05-10T22:31:49.153Z,4.33
2018-05-10T22:34:17.069Z,3.70
2018-05-10T22:36:44.970Z,4.80
2018-05-10T22:39:12.881Z,4.80
2018-05-10T22:41:40.774Z,4.97
2018-05-10T22:44:08.664Z,4.00
2018-05-10T22:46:36.599Z,3.80
2018-05-10T22:49:04.506Z,4.47
2018-05-10T22:51:32.466Z,5.20
2018-05-10T22:54:00.352Z,4.30
2018-05-10T22:56:28.270Z,5.13
2018-05-10T22:58:56.169Z,4.50
2018-05-10T23:01:24.094Z,4.67
2018-05-10T23:03:52.007Z,4.00
2018-05-10T23:06:19.905Z,4.40
2018-05-10T23:08:47.801Z,4.60
2018-05-10T23:11:15.723Z,5.03
2018-05-10T23:13:43.634Z,5.20
2018-05-10T23:16:11.525Z,5.17
2018-05-10T23:18:39.642Z,5.03
2018-05-10T23:21:07.561Z,5.70
2018-05-10T23:23:35.510Z,5.30
2018-05-10T23:26:03.454Z,5.63
2018-05-10T23:28:31.367Z,5.70
2018-05-10T23:30:59.267Z,4.60
2018-05-10T23:33:27.172Z,4.97
2018-05-10T23:35:55.074Z,5.13
2018-05-10T23:38:23.024Z,4.07
2018-05-10T23:40:50.969Z,4.00
2018-05-10T23:43:18.882Z,5.13
2018-05-10T23:45:46.782Z,4.67
2018-05-10T23:48:14.705Z,5.30
2018-05-10T23:50:42.665Z,5.50
2018-05-10T23:53:10.592Z,5.60
2018-05-10T23:55:38.547Z,5.70
2018-05-10T23:58:06.458Z,4.20
